createdAt,value
2018-11-05T00:01:43.142Z,100167.27
2018-11-05T00:11:45.444Z,100152.31
2018-11-05T00:21:47.859Z,100148.36
2018-11-05T00:31:50.196Z,100158.06
2018-11-05T00:41:53.458Z,100154.73
2018-11-05T00:51:56.356Z,100143.20
2018-11-05T01:01:58.779Z,100135.02
2018-11-05T01:12:02.386Z,100120.45
2018-11-05T01:22:04.937Z,100107.86
2018-11-05T01:32:08.492Z,100101.36
2018-11-05T01:42:11.390Z,100098.89
2018-11-05T01:52:13.941Z,100092.39
2018-11-05T02:02:16.441Z,100094.80
2018-11-05T02:12:18.917Z,100102.70
2018-11-05T02:22:21.590Z,100101.06
2018-11-05T02:32:23.983Z,100087.23
2018-11-05T02:42:26.892Z,100087.77
2018-11-05T02:52:29.999Z,100100.92
2018-11-05T03:02:32.449Z,100086.45
2018-11-05T03:12:35.453Z,100082.66
2018-11-05T03:22:38.430Z,100078.72
2018-11-05T03:32:41.830Z,100066.50
2018-11-05T03:42:47.522Z,100106.91
2018-11-05T03:52:49.969Z,100117.59
2018-11-05T04:02:53.758Z,100106.13
2018-11-05T04:12:57.834Z,100103.05
2018-11-05T04:23:00.211Z,100102.59
2018-11-05T04:33:03.188Z,100093.13
2018-11-05T04:43:05.617Z,100084.78
2018-11-05T04:53:08.695Z,100080.17
2018-11-05T05:03:11.146Z,100078.85
2018-11-05T05:13:13.525Z,100057.87
2018-11-05T05:23:16.026Z,100065.28
2018-11-05T05:33:18.551Z,100061.13
2018-11-05T05:43:21.389Z,100062.81
2018-11-05T05:53:23.815Z,100061.20
2018-11-05T06:03:26.281Z,100083.86
2018-11-05T06:13:29.556Z,100088.16
2018-11-05T06:23:34.139Z,100077.48
2018-11-05T06:33:36.717Z,100091.01
2018-11-05T06:43:39.286Z,100082.17
2018-11-05T06:53:41.758Z,100081.80
2018-11-05T07:03:44.181Z,100069.95
2018-11-05T07:13:46.639Z,100069.09
2018-11-05T07:23:49.486Z,100080.00
2018-11-05T07:33:52.701Z,100073.98
2018-11-05T07:43:55.049Z,100072.75
2018-11-05T07:53:57.495Z,100084.51
2018-11-05T08:04:00.043Z,100076.44
2018-11-05T08:14:02.862Z,100066.50
2018-11-05T08:24:05.394Z,100054.70
2018-11-05T08:34:07.919Z,100047.84
2018-11-05T08:44:11.433Z,100040.37
2018-11-05T08:54:14.179Z,100037.03
2018-11-05T09:04:16.489Z,100032.55
2018-11-05T09:14:18.928Z,100036.89
2018-11-05T09:24:21.299Z,100033.22
2018-11-05T09:34:24.578Z,100027.61
2018-11-05T09:44:28.538Z,100019.71
2018-11-05T09:54:30.974Z,100000.58
2018-11-05T10:04:33.639Z,100001.09
2018-11-05T10:14:36.416Z,100005.28
2018-11-05T10:24:39.527Z,99986.68
2018-11-05T10:34:41.802Z,99970.11
2018-11-05T10:44:44.121Z,99979.94
2018-11-05T10:54:46.433Z,99959.59
2018-11-05T11:04:48.769Z,99943.60
2018-11-05T11:14:51.273Z,99941.73
2018-11-05T11:24:53.606Z,99939.29
2018-11-05T11:34:55.960Z,99923.11
2018-11-05T11:44:58.815Z,99929.88
2018-11-05T11:55:01.381Z,99934.39
2018-11-05T12:05:03.980Z,99935.34
2018-11-05T12:15:06.527Z,99940.25
2018-11-05T12:25:09.186Z,99923.47
2018-11-05T12:35:12.448Z,99931.30
2018-11-05T12:45:17.151Z,99928.93
2018-11-05T12:55:20.554Z,99933.84
2018-11-05T13:05:23.305Z,99927.06
2018-11-05T13:15:25.763Z,99935.16
2018-11-05T13:25:28.030Z,99936.08
2018-11-05T13:35:30.522Z,99930.25
2018-11-05T13:45:34.971Z,99919.42
2018-11-05T13:55:37.569Z,99901.98
2018-11-05T14:05:39.963Z,99897.45
2018-11-05T14:15:42.298Z,99884.34
2018-11-05T14:25:44.807Z,99878.15
2018-11-05T14:35:47.163Z,99891.53
2018-11-05T14:45:49.737Z,99888.98
2018-11-05T14:55:52.181Z,99883.91
2018-11-05T15:05:54.522Z,99881.17
2018-11-05T15:15:57.023Z,99871.75
2018-11-05T15:25:59.445Z,99854.31
2018-11-05T15:36:01.870Z,99846.93
2018-11-05T15:46:04.582Z,99855.99
2018-11-05T15:56:06.948Z,99858.08
2018-11-05T16:06:10.482Z,99858.98
2018-11-05T16:16:12.852Z,99870.30
2018-11-05T16:26:15.334Z,99880.27
2018-11-05T16:36:17.694Z,99898.18
2018-11-05T16:46:20.158Z,99906.34
2018-11-05T16:56:22.471Z,99900.11
2018-11-05T17:06:24.834Z,99890.33
2018-11-05T17:16:27.318Z,99903.88
2018-11-05T17:26:29.910Z,99901.79
2018-11-05T17:36:32.433Z,99897.83
2018-11-05T17:46:34.922Z,99890.31
2018-11-05T17:56:37.251Z,99877.14
2018-11-05T18:06:39.574Z,99867.31
2018-11-05T18:16:41.873Z,99855.55
2018-11-05T18:26:44.212Z,99865.72
2018-11-05T18:36:46.550Z,99874.29
2018-11-05T18:46:49.041Z,99870.33
2018-11-05T18:56:51.418Z,99851.47
2018-11-05T19:06:53.684Z,99837.92
2018-11-05T19:16:56.028Z,99838.52
2018-11-05T19:26:58.329Z,99853.38
2018-11-05T19:37:00.666Z,99829.84
2018-11-05T19:47:02.973Z,99820.41
2018-11-05T19:57:05.487Z,99849.05
2018-11-05T20:07:07.837Z,99848.87
2018-11-05T20:17:10.146Z,99827.06
2018-11-05T20:27:12.485Z,99831.56
2018-11-05T20:37:14.990Z,99863.56
2018-11-05T20:47:17.342Z,99854.34
2018-11-05T20:57:19.815Z,99846.16
2018-11-05T21:07:22.146Z,99849.06
2018-11-05T21:17:24.474Z,99843.14
2018-11-05T21:27:26.824Z,99831.20
2018-11-05T21:37:29.342Z,99835.71
2018-11-05T21:47:31.996Z,99836.48
2018-11-05T21:57:34.378Z,99828.75
2018-11-05T22:07:36.716Z,99817.27
2018-11-05T22:17:39.588Z,99799.19
2018-11-05T22:27:42.469Z,99810.95
2018-11-05T22:37:44.960Z,99818.77
2018-11-05T22:47:47.881Z,99834.94
2018-11-05T22:57:51.203Z,99838.89
2018-11-05T23:07:54.560Z,99833.58
2018-11-05T23:17:57.314Z,99825.89
2018-11-05T23:28:00.177Z,99837.34
2018-11-05T23:38:02.606Z,99839.61
2018-11-05T23:48:05.350Z,99838.84
2018-11-05T23:58:07.891Z,99842.80
